Time;durP1;ratioP1;P1;durP2;ratioP2;P2;SDS_P1;SDS_P2;PMS_P1;PMS_P2;Temp;Humidity;BMP_temperature;BMP_pressure;BME280_temperature;BME280_humidity;BME280_pressure;Samples;Min_cycle;Max_cycle;Signal;HPM_P1;HPM_P2
2022/01/09 00:01:17;;;;;;;2.47;1.40;;;5.40;99.90;;;;;;5013242;28;20453;-84
2022/01/09 00:03:44;;;;;;;5.13;2.03;;;5.40;99.90;;;;;;5014386;28;20486;-85
2022/01/09 00:06:14;;;;;;;2.00;1.50;;;5.40;99.90;;;;;;5027838;28;20466;-83
2022/01/09 00:08:41;;;;;;;1.70;1.60;;;5.30;99.90;;;;;;5014998;28;20455;-85
2022/01/09 00:11:08;;;;;;;1.47;1.37;;;5.30;99.90;;;;;;5014626;28;20482;-85
2022/01/09 00:13:35;;;;;;;2.30;1.50;;;5.30;99.90;;;;;;5019558;28;20450;-85
2022/01/09 00:16:02;;;;;;;1.50;0.83;;;5.30;99.90;;;;;;5029666;28;20509;-84
2022/01/09 00:18:28;;;;;;;1.60;1.50;;;5.30;99.90;;;;;;5014071;28;20510;-83
2022/01/09 00:20:55;;;;;;;2.70;1.43;;;5.30;99.90;;;;;;4998710;28;20514;-83
2022/01/09 00:23:23;;;;;;;2.23;1.33;;;5.30;99.90;;;;;;5006958;28;20461;-85
2022/01/09 00:25:50;;;;;;;0.87;0.70;;;5.30;99.90;;;;;;5029531;28;20474;-84
2022/01/09 00:28:17;;;;;;;1.10;1.00;;;5.40;99.90;;;;;;5008598;28;20978;-84
2022/01/09 00:30:43;;;;;;;1.10;0.60;;;5.40;99.90;;;;;;4996075;28;20503;-84
2022/01/09 00:33:10;;;;;;;1.40;0.97;;;5.50;99.90;;;;;;5027100;28;20452;-84
2022/01/09 00:35:37;;;;;;;0.93;0.70;;;5.50;99.90;;;;;;5059939;23;20519;-93
2022/01/09 00:38:04;;;;;;;0.60;0.53;;;5.50;99.90;;;;;;5026648;28;20481;-92
2022/01/09 00:40:33;;;;;;;1.17;0.70;;;5.50;99.90;;;;;;5019475;28;20480;-92
2022/01/09 00:42:59;;;;;;;0.70;0.60;;;5.60;99.90;;;;;;5021320;28;20454;-91
2022/01/09 00:45:26;;;;;;;0.50;0.40;;;5.60;99.90;;;;;;5028454;28;20468;-89
2022/01/09 00:47:53;;;;;;;0.50;0.40;;;5.60;99.90;;;;;;5030050;28;20514;-92
2022/01/09 00:50:20;;;;;;;0.60;0.43;;;5.60;99.90;;;;;;5035776;28;20450;-92
2022/01/09 00:52:47;;;;;;;0.70;0.57;;;5.60;99.90;;;;;;5008330;28;20538;-92
2022/01/09 00:55:18;;;;;;;0.53;0.40;;;5.70;99.90;;;;;;5010352;28;20435;-90
2022/01/09 00:57:46;;;;;;;1.23;0.40;;;5.70;99.90;;;;;;5026963;28;20469;-92
2022/01/09 01:00:14;;;;;;;0.53;0.50;;;5.60;99.90;;;;;;5017929;28;21048;-92
2022/01/09 01:02:42;;;;;;;0.90;0.50;;;5.70;99.90;;;;;;5006909;28;20448;-91
2022/01/09 01:05:12;;;;;;;0.50;0.40;;;5.70;99.90;;;;;;5013053;28;20446;-90
2022/01/09 01:07:39;;;;;;;0.63;0.47;;;5.70;99.90;;;;;;5017459;28;20435;-91
2022/01/09 01:10:07;;;;;;;1.33;0.50;;;5.70;99.90;;;;;;5017373;28;20438;-91
2022/01/09 01:12:34;;;;;;;1.17;0.53;;;5.70;99.90;;;;;;5016708;28;20439;-90
2022/01/09 01:15:03;;;;;;;1.20;0.37;;;5.70;99.90;;;;;;5017524;28;20439;-92
2022/01/09 01:17:30;;;;;;;0.80;0.70;;;5.80;99.90;;;;;;5027135;28;20494;-92
2022/01/09 01:19:57;;;;;;;0.50;0.40;;;5.70;99.90;;;;;;5032751;28;20508;-92
2022/01/09 01:22:25;;;;;;;1.73;0.60;;;5.80;99.90;;;;;;5029746;28;20442;-91
2022/01/09 01:24:53;;;;;;;0.87;0.53;;;5.80;99.90;;;;;;5026928;28;20516;-92
2022/01/09 01:27:19;;;;;;;1.10;0.60;;;5.80;99.90;;;;;;5015828;28;20499;-93
2022/01/09 01:29:46;;;;;;;0.57;0.40;;;5.80;99.90;;;;;;5005744;28;20451;-92
2022/01/09 01:32:15;;;;;;;0.60;0.50;;;5.80;99.90;;;;;;5015772;28;20450;-92
2022/01/09 01:34:42;;;;;;;1.10;0.73;;;5.80;99.90;;;;;;5038945;28;20477;-92
2022/01/09 01:37:09;;;;;;;0.80;0.60;;;5.80;99.90;;;;;;5035572;28;20474;-91
2022/01/09 01:39:36;;;;;;;0.97;0.77;;;5.80;99.90;;;;;;5025645;28;20487;-91
2022/01/09 01:42:08;;;;;;;0.60;0.40;;;5.80;99.90;;;;;;5014056;28;20470;-91
2022/01/09 01:44:42;;;;;;;0.90;0.77;;;5.90;99.90;;;;;;5019713;28;20427;-91
2022/01/09 01:47:09;;;;;;;0.80;0.63;;;5.90;99.90;;;;;;5018423;28;20446;-91
2022/01/09 01:49:38;;;;;;;1.13;0.70;;;5.90;99.90;;;;;;5022339;28;20427;-91
2022/01/09 01:52:06;;;;;;;0.70;0.60;;;5.90;99.90;;;;;;5021770;28;20454;-91
2022/01/09 01:54:33;;;;;;;0.77;0.60;;;5.90;99.90;;;;;;5020090;28;20447;-91
2022/01/09 01:57:00;;;;;;;1.00;0.73;;;6.00;99.90;;;;;;5009820;28;20478;-92
2022/01/09 01:59:31;;;;;;;1.17;0.60;;;6.00;99.90;;;;;;5007163;28;20491;-92
2022/01/09 02:01:58;;;;;;;1.10;0.47;;;6.00;99.90;;;;;;5013801;28;20439;-91
2022/01/09 02:04:26;;;;;;;0.90;0.60;;;6.00;99.90;;;;;;5021084;28;20502;-92
2022/01/09 02:06:55;;;;;;;0.80;0.50;;;6.10;99.90;;;;;;5011037;28;20487;-92
2022/01/09 02:09:23;;;;;;;0.83;0.70;;;6.10;99.90;;;;;;5031155;28;20468;-92
2022/01/09 02:11:49;;;;;;;0.50;0.30;;;6.10;99.90;;;;;;5015753;28;20534;-93
2022/01/09 02:14:16;;;;;;;0.60;0.33;;;6.10;99.90;;;;;;5002339;28;20491;-92
2022/01/09 02:16:44;;;;;;;1.20;0.50;;;6.10;99.90;;;;;;5013323;28;20466;-92
2022/01/09 02:19:14;;;;;;;0.60;0.50;;;6.00;99.90;;;;;;5027545;28;20496;-93
2022/01/09 02:21:44;;;;;;;0.70;0.40;;;6.10;99.90;;;;;;5021359;28;20447;-91
2022/01/09 02:24:11;;;;;;;0.60;0.50;;;6.20;99.90;;;;;;5009792;28;20439;-92
2022/01/09 02:26:38;;;;;;;0.60;0.40;;;6.20;99.90;;;;;;5019430;28;20459;-91
2022/01/09 02:29:09;;;;;;;0.60;0.50;;;6.20;99.90;;;;;;5012549;28;20439;-91
2022/01/09 02:31:36;;;;;;;2.83;2.73;;;6.30;99.90;;;;;;5005867;28;20455;-92
2022/01/09 02:34:05;;;;;;;4.10;2.97;;;6.30;99.90;;;;;;5009536;28;20438;-90
2022/01/09 02:36:38;;;;;;;1.00;0.53;;;6.30;99.90;;;;;;5013645;28;20514;-89
2022/01/09 02:39:07;;;;;;;0.90;0.40;;;6.30;99.90;;;;;;5006233;28;20479;-92
2022/01/09 02:41:34;;;;;;;0.47;0.30;;;6.30;99.90;;;;;;5015296;28;20435;-91
2022/01/09 02:44:08;;;;;;;0.53;0.37;;;6.30;99.90;;;;;;5012164;28;20458;-91
2022/01/09 02:46:49;;;;;;;0.47;0.30;;;6.30;99.90;;;;;;4982188;28;20530;-92
2022/01/09 02:49:19;;;;;;;0.80;0.30;;;6.20;99.90;;;;;;4983255;28;20455;-92
2022/01/09 02:51:46;;;;;;;0.50;0.30;;;6.20;99.90;;;;;;4999181;28;20502;-92
2022/01/09 02:56:59;;;;;;;1.13;0.50;;;6.10;99.90;;;;;;5002846;28;20470;-92
2022/01/09 02:59:26;;;;;;;0.50;0.30;;;6.20;99.90;;;;;;5001806;28;20475;-92
2022/01/09 03:01:53;;;;;;;0.50;0.30;;;6.20;99.90;;;;;;5001668;28;21084;-92
2022/01/09 03:07:01;;;;;;;0.57;0.40;;;6.20;99.90;;;;;;4998812;28;20807;-91
2022/01/09 03:09:29;;;;;;;0.70;0.40;;;6.20;99.90;;;;;;5001906;28;21025;-91
2022/01/09 03:11:56;;;;;;;0.77;0.43;;;6.20;99.90;;;;;;5001548;28;20439;-91
2022/01/09 03:14:23;;;;;;;0.57;0.40;;;6.20;99.90;;;;;;5006090;28;20435;-91
2022/01/09 03:16:49;;;;;;;1.00;0.30;;;6.30;99.90;;;;;;5015256;28;20558;-92
2022/01/09 03:19:16;;;;;;;0.80;0.50;;;6.30;99.90;;;;;;5012995;28;20478;-92
2022/01/09 03:21:43;;;;;;;0.60;0.57;;;6.30;99.90;;;;;;5015746;28;20523;-92
2022/01/09 03:24:10;;;;;;;0.50;0.30;;;6.30;99.90;;;;;;5019454;28;20442;-90
2022/01/09 03:26:44;;;;;;;0.90;0.30;;;6.30;99.90;;;;;;5018927;28;20523;-92
2022/01/09 03:29:11;;;;;;;0.50;0.30;;;6.30;99.90;;;;;;5011526;28;20502;-91
2022/01/09 03:31:38;;;;;;;0.53;0.37;;;6.30;99.90;;;;;;5015203;28;20471;-91
2022/01/09 03:34:05;;;;;;;0.50;0.30;;;6.30;99.90;;;;;;5006793;28;20459;-92
2022/01/09 03:36:32;;;;;;;0.60;0.50;;;6.40;99.90;;;;;;5000806;28;20475;-91
2022/01/09 03:38:59;;;;;;;0.50;0.40;;;6.40;99.90;;;;;;5022152;28;20477;-92
2022/01/09 03:41:26;;;;;;;1.03;0.50;;;6.30;99.90;;;;;;5022564;28;20446;-92
2022/01/09 03:43:56;;;;;;;0.57;0.40;;;6.30;99.90;;;;;;5030761;28;20521;-91
2022/01/09 03:46:23;;;;;;;0.70;0.47;;;6.30;99.90;;;;;;5038637;28;20450;-92
2022/01/09 03:48:50;;;;;;;0.50;0.40;;;6.30;99.90;;;;;;5020943;28;20503;-90
2022/01/09 03:51:16;;;;;;;1.27;0.60;;;6.20;99.90;;;;;;5020060;28;20431;-88
2022/01/09 03:53:43;;;;;;;0.57;0.37;;;6.20;99.90;;;;;;5020058;28;20510;-90
2022/01/09 03:56:10;;;;;;;0.60;0.40;;;6.20;99.90;;;;;;5016944;28;20472;-92
2022/01/09 03:58:37;;;;;;;0.50;0.50;;;6.10;99.90;;;;;;5019540;28;20427;-91
2022/01/09 04:01:08;;;;;;;0.67;0.50;;;6.20;99.90;;;;;;5019106;28;20499;-90
2022/01/09 04:03:35;;;;;;;0.50;0.40;;;6.20;99.90;;;;;;5018669;28;20439;-90
2022/01/09 04:06:02;;;;;;;1.13;0.40;;;6.10;99.90;;;;;;5019270;28;20526;-92
2022/01/09 04:08:31;;;;;;;1.00;0.50;;;6.20;99.90;;;;;;5025912;28;20901;-92
2022/01/09 04:10:58;;;;;;;1.00;0.50;;;6.20;99.90;;;;;;5021130;28;21024;-91
2022/01/09 04:13:25;;;;;;;0.50;0.40;;;6.20;99.90;;;;;;5024487;28;20828;-92
2022/01/09 04:15:52;;;;;;;1.63;0.50;;;6.10;99.90;;;;;;5023848;28;20522;-91
2022/01/09 04:18:24;;;;;;;0.70;0.40;;;6.10;99.90;;;;;;5038495;28;20474;-89
2022/01/09 04:20:52;;;;;;;0.60;0.40;;;6.10;99.90;;;;;;5036027;28;20490;-91
2022/01/09 04:23:20;;;;;;;0.73;0.40;;;6.00;99.90;;;;;;5025900;28;20533;-92
2022/01/09 04:25:48;;;;;;;0.90;0.40;;;6.00;99.90;;;;;;5026449;28;20473;-92
2022/01/09 04:28:15;;;;;;;0.67;0.50;;;6.00;99.90;;;;;;5001087;28;20443;-93
2022/01/09 04:30:43;;;;;;;1.27;0.50;;;6.00;99.90;;;;;;5019108;28;20468;-92
2022/01/09 04:33:10;;;;;;;1.43;0.50;;;6.00;99.90;;;;;;5017819;28;20918;-92
2022/01/09 04:35:42;;;;;;;0.60;0.40;;;5.90;99.90;;;;;;5014924;28;20482;-92
2022/01/09 04:38:10;;;;;;;1.03;0.50;;;5.90;99.90;;;;;;5007539;28;20474;-92
2022/01/09 04:40:43;;;;;;;0.50;0.40;;;6.00;99.90;;;;;;5001051;28;20520;-92
2022/01/09 04:43:17;;;;;;;0.77;0.40;;;6.00;99.90;;;;;;5038712;28;20407;-90
2022/01/09 04:45:45;;;;;;;0.53;0.40;;;5.90;99.90;;;;;;5036470;28;20541;-90
2022/01/09 04:48:13;;;;;;;0.50;0.30;;;6.00;99.90;;;;;;5034595;28;20455;-91
2022/01/09 04:50:44;;;;;;;0.87;0.40;;;5.90;99.90;;;;;;5011365;28;20447;-92
2022/01/09 04:53:11;;;;;;;2.27;0.60;;;5.90;99.90;;;;;;5012437;28;20502;-92
2022/01/09 04:55:40;;;;;;;0.60;0.37;;;5.80;99.90;;;;;;5017656;28;20451;-91
2022/01/09 04:58:08;;;;;;;0.63;0.40;;;5.80;99.90;;;;;;5009330;28;20554;-90
2022/01/09 05:00:36;;;;;;;0.60;0.30;;;5.80;99.90;;;;;;5012562;28;20514;-92
2022/01/09 05:03:04;;;;;;;0.57;0.40;;;5.70;99.90;;;;;;5012529;28;20457;-90
2022/01/09 05:05:41;;;;;;;1.03;0.53;;;5.70;99.90;;;;;;5030207;28;20920;-92
2022/01/09 05:10:49;;;;;;;2.00;0.40;;;5.70;99.90;;;;;;5029154;28;20454;-92
2022/01/09 05:13:16;;;;;;;0.50;0.30;;;5.60;99.90;;;;;;5036147;28;20446;-89
2022/01/09 05:15:42;;;;;;;2.60;0.50;;;5.60;99.90;;;;;;5003646;28;20562;-90
2022/01/09 05:18:14;;;;;;;0.53;0.50;;;5.50;99.90;;;;;;5000139;28;20845;-88
2022/01/09 05:20:42;;;;;;;0.93;0.30;;;5.50;99.90;;;;;;4994695;28;20477;-87
2022/01/09 05:23:09;;;;;;;0.50;0.30;;;5.50;99.90;;;;;;5013956;28;20445;-88
2022/01/09 05:25:36;;;;;;;0.60;0.40;;;5.40;99.90;;;;;;4997928;28;20474;-88
2022/01/09 05:28:03;;;;;;;1.63;0.30;;;5.40;99.90;;;;;;4993852;28;20468;-88
2022/01/09 05:30:30;;;;;;;0.50;0.30;;;5.40;99.90;;;;;;5010756;28;20983;-89
2022/01/09 05:32:57;;;;;;;0.60;0.40;;;5.30;99.90;;;;;;5014425;28;20438;-87
2022/01/09 05:35:25;;;;;;;0.50;0.30;;;5.30;99.90;;;;;;5000124;28;20521;-86
2022/01/09 05:37:53;;;;;;;0.50;0.30;;;5.30;99.90;;;;;;4993146;28;20455;-89
2022/01/09 05:40:20;;;;;;;0.60;0.30;;;5.30;99.90;;;;;;5004221;28;20492;-87
2022/01/09 05:42:48;;;;;;;0.40;0.30;;;5.20;99.90;;;;;;5035454;28;20433;-86
2022/01/09 05:45:17;;;;;;;1.50;0.40;;;5.20;99.90;;;;;;5020314;28;20450;-87
2022/01/09 05:47:43;;;;;;;1.20;0.30;;;5.20;99.90;;;;;;4996098;28;20534;-87
2022/01/09 05:50:10;;;;;;;0.60;0.40;;;5.10;99.90;;;;;;5002959;28;20446;-87
2022/01/09 05:52:37;;;;;;;0.60;0.40;;;5.10;99.90;;;;;;5015159;28;20469;-87
2022/01/09 05:55:06;;;;;;;0.50;0.30;;;5.10;99.90;;;;;;5030575;28;20425;-90
2022/01/09 05:57:33;;;;;;;0.50;0.40;;;5.10;99.90;;;;;;5036984;28;20449;-88
2022/01/09 06:00:00;;;;;;;0.60;0.30;;;5.10;99.90;;;;;;5037475;28;20469;-87
2022/01/09 06:02:27;;;;;;;0.60;0.50;;;5.10;99.90;;;;;;5035482;28;20444;-87
2022/01/09 06:04:54;;;;;;;0.60;0.40;;;5.00;99.90;;;;;;5010830;28;20454;-88
2022/01/09 06:07:21;;;;;;;1.53;0.53;;;5.00;99.90;;;;;;4995511;28;20529;-88
2022/01/09 06:09:47;;;;;;;2.60;0.67;;;5.00;99.90;;;;;;5003294;28;20423;-88
2022/01/09 06:12:15;;;;;;;1.70;0.90;;;5.00;99.90;;;;;;5048340;28;20501;-87
2022/01/09 06:14:42;;;;;;;0.73;0.60;;;5.00;99.90;;;;;;5028860;28;20447;-88
2022/01/09 06:17:09;;;;;;;2.67;0.50;;;5.00;99.90;;;;;;5031216;28;20453;-86
2022/01/09 06:19:35;;;;;;;3.30;2.03;;;5.00;99.90;;;;;;5045625;28;20479;-88
2022/01/09 06:22:03;;;;;;;4.80;1.87;;;4.90;99.90;;;;;;5029896;28;20442;-87
2022/01/09 06:24:29;;;;;;;2.13;1.30;;;4.90;99.90;;;;;;5034668;28;20441;-88
2022/01/09 06:26:56;;;;;;;2.80;1.87;;;4.90;99.90;;;;;;5021784;28;20462;-88
2022/01/09 06:29:24;;;;;;;2.50;1.63;;;4.90;99.90;;;;;;5025581;28;20867;-88
2022/01/09 06:31:51;;;;;;;5.33;2.03;;;4.90;99.90;;;;;;5023419;28;20459;-88
2022/01/09 06:34:19;;;;;;;2.70;1.27;;;4.90;99.90;;;;;;5024158;28;20449;-88
2022/01/09 06:36:45;;;;;;;1.73;0.93;;;4.90;99.90;;;;;;5024101;28;20476;-87
2022/01/09 06:39:12;;;;;;;2.60;1.50;;;4.90;99.90;;;;;;5029759;28;20434;-84
2022/01/09 06:41:39;;;;;;;4.50;1.93;;;5.00;99.90;;;;;;5032365;28;20454;-84
2022/01/09 06:44:06;;;;;;;6.00;1.40;;;5.00;99.90;;;;;;5027995;28;20956;-84
2022/01/09 06:46:34;;;;;;;3.17;0.90;;;5.00;99.90;;;;;;5030860;28;20494;-84
2022/01/09 06:49:02;;;;;;;3.33;1.33;;;5.00;99.90;;;;;;5043424;28;20505;-84
2022/01/09 06:51:29;;;;;;;1.00;0.60;;;5.00;99.90;;;;;;5035356;28;20434;-84
2022/01/09 06:53:58;;;;;;;0.60;0.50;;;5.00;99.90;;;;;;5025745;28;20449;-84
2022/01/09 06:56:25;;;;;;;0.77;0.53;;;5.00;99.90;;;;;;5025046;28;20820;-84
2022/01/09 06:58:52;;;;;;;0.97;0.70;;;5.00;99.90;;;;;;5026145;28;20475;-90
2022/01/09 07:01:19;;;;;;;1.43;0.40;;;5.00;99.90;;;;;;5023239;28;20485;-89
2022/01/09 07:03:47;;;;;;;3.47;0.60;;;4.90;99.90;;;;;;5025188;28;20448;-89
2022/01/09 07:06:14;;;;;;;1.83;0.60;;;5.00;99.90;;;;;;5023500;28;20462;-89
2022/01/09 07:08:40;;;;;;;0.83;0.73;;;4.90;99.90;;;;;;5023952;28;20528;-89
2022/01/09 07:11:07;;;;;;;1.30;0.50;;;4.90;99.90;;;;;;5023296;28;20823;-89
2022/01/09 07:13:34;;;;;;;0.90;0.60;;;4.90;99.90;;;;;;5023627;28;20446;-89
2022/01/09 07:16:01;;;;;;;0.80;0.50;;;4.90;99.90;;;;;;5023145;28;20537;-89
2022/01/09 07:18:28;;;;;;;0.67;0.50;;;4.80;99.90;;;;;;5023501;28;20450;-89
2022/01/09 07:20:56;;;;;;;1.83;0.40;;;4.80;99.90;;;;;;5023572;28;20481;-88
2022/01/09 07:23:22;;;;;;;0.60;0.50;;;4.80;99.90;;;;;;5025295;28;20441;-89
2022/01/09 07:25:49;;;;;;;1.00;0.60;;;4.80;99.90;;;;;;5024572;28;20473;-89
2022/01/09 07:28:16;;;;;;;2.00;1.23;;;4.80;99.90;;;;;;5024370;28;20529;-89
2022/01/09 07:30:44;;;;;;;0.77;0.60;;;4.80;99.90;;;;;;5032141;28;20642;-89
2022/01/09 07:33:11;;;;;;;2.00;1.30;;;4.90;99.90;;;;;;5046902;28;20458;-86
2022/01/09 07:35:38;;;;;;;2.23;1.07;;;4.90;99.90;;;;;;5034390;28;20466;-89
2022/01/09 07:38:06;;;;;;;2.00;1.13;;;5.00;99.90;;;;;;5025816;28;20441;-89
2022/01/09 07:40:33;;;;;;;1.77;1.03;;;5.00;99.90;;;;;;5026703;28;20486;-88
2022/01/09 07:43:03;;;;;;;1.93;1.60;;;5.00;99.90;;;;;;5026275;28;20442;-89
2022/01/09 07:45:30;;;;;;;5.23;2.40;;;5.00;99.90;;;;;;5025239;28;20500;-89
2022/01/09 07:47:59;;;;;;;1.67;1.40;;;5.00;99.90;;;;;;5020909;28;20447;-89
2022/01/09 07:50:27;;;;;;;2.63;1.13;;;5.10;99.90;;;;;;5021687;28;20485;-90
2022/01/09 07:52:54;;;;;;;1.67;1.57;;;5.10;99.90;;;;;;5023135;28;20443;-89
2022/01/09 07:55:22;;;;;;;3.90;1.70;;;5.10;99.90;;;;;;5022953;28;20465;-89
2022/01/09 07:57:50;;;;;;;4.10;1.90;;;5.10;99.90;;;;;;5027777;28;20426;-89
2022/01/09 08:00:18;;;;;;;3.23;1.27;;;5.10;99.90;;;;;;5023873;28;20465;-89
2022/01/09 08:02:45;;;;;;;2.50;1.27;;;5.20;99.90;;;;;;5024479;28;20450;-89
2022/01/09 08:05:13;;;;;;;4.13;1.17;;;5.20;99.90;;;;;;5046801;28;20425;-89
2022/01/09 08:07:40;;;;;;;5.63;1.50;;;5.20;99.90;;;;;;5044739;28;20439;-89
2022/01/09 08:10:07;;;;;;;7.70;2.10;;;5.20;99.90;;;;;;5032877;28;20426;-88
2022/01/09 08:12:36;;;;;;;2.23;1.23;;;5.20;99.90;;;;;;5034394;28;20440;-89
2022/01/09 08:15:03;;;;;;;3.33;1.87;;;5.30;99.90;;;;;;5025086;28;20481;-90
2022/01/09 08:17:30;;;;;;;5.43;1.47;;;5.30;99.90;;;;;;5023784;28;20818;-89
2022/01/09 08:19:56;;;;;;;3.87;1.30;;;5.30;99.90;;;;;;5022580;28;20441;-89
2022/01/09 08:22:28;;;;;;;3.63;1.47;;;5.30;99.90;;;;;;5023427;28;20827;-90
2022/01/09 08:24:55;;;;;;;4.10;1.40;;;5.40;99.90;;;;;;5025096;28;20834;-91
2022/01/09 08:27:29;;;;;;;3.20;1.33;;;5.40;99.90;;;;;;5030535;28;20873;-90
2022/01/09 08:29:57;;;;;;;3.40;1.23;;;5.50;99.90;;;;;;5045492;28;20931;-89
2022/01/09 08:32:24;;;;;;;3.30;1.80;;;5.50;99.90;;;;;;5047511;28;20425;-90
2022/01/09 08:34:51;;;;;;;6.80;1.70;;;5.60;99.90;;;;;;5047409;28;20444;-90
2022/01/09 08:37:18;;;;;;;3.90;1.20;;;5.70;99.90;;;;;;5048423;28;20548;-89
2022/01/09 08:39:45;;;;;;;4.87;1.40;;;5.70;99.90;;;;;;5049481;28;20442;-90
2022/01/09 08:42:12;;;;;;;3.77;1.40;;;5.80;99.90;;;;;;5048675;28;20458;-90
2022/01/09 08:44:39;;;;;;;4.10;1.50;;;5.90;99.90;;;;;;5030749;28;20434;-88
2022/01/09 08:47:07;;;;;;;6.70;2.17;;;6.00;99.90;;;;;;5024675;28;20463;-89
2022/01/09 08:49:34;;;;;;;8.80;1.90;;;6.10;99.90;;;;;;5035784;28;20453;-88
2022/01/09 08:52:01;;;;;;;4.20;1.53;;;6.10;99.90;;;;;;5026600;28;20437;-88
2022/01/09 08:56:58;;;;;;;4.27;1.80;;;6.20;99.90;;;;;;4976420;28;20457;-86
2022/01/09 08:59:25;;;;;;;2.67;1.67;;;6.30;99.90;;;;;;4977802;28;20429;-87
2022/01/09 09:01:54;;;;;;;6.10;1.87;;;6.30;99.90;;;;;;4978508;28;20477;-86
2022/01/09 09:04:22;;;;;;;7.83;2.20;;;6.40;99.90;;;;;;4978759;28;20444;-88
2022/01/09 09:06:49;;;;;;;4.77;1.73;;;6.50;99.90;;;;;;4959156;29;20438;-87
2022/01/09 09:09:15;;;;;;;3.23;1.90;;;6.50;99.90;;;;;;4959276;29;20472;-87
2022/01/09 09:11:42;;;;;;;5.90;2.73;;;6.50;99.90;;;;;;4959463;29;20446;-88
2022/01/09 09:14:09;;;;;;;6.40;1.90;;;6.60;99.90;;;;;;4959187;29;20453;-87
2022/01/09 09:16:36;;;;;;;4.47;1.53;;;6.70;99.90;;;;;;4959163;29;20450;-87
2022/01/09 09:19:03;;;;;;;4.10;1.20;;;6.60;99.90;;;;;;4959751;29;20432;-88
2022/01/09 09:21:31;;;;;;;4.00;1.90;;;6.60;99.90;;;;;;4959592;29;20469;-88
2022/01/09 09:23:58;;;;;;;5.30;2.10;;;6.60;99.90;;;;;;4957887;29;20438;-88
2022/01/09 09:26:25;;;;;;;3.07;1.60;;;6.50;99.90;;;;;;4958941;29;20517;-87
2022/01/09 09:28:51;;;;;;;6.53;2.40;;;6.40;99.90;;;;;;4959032;29;20426;-88
2022/01/09 09:31:19;;;;;;;3.90;2.33;;;6.40;99.90;;;;;;4958640;29;20430;-87
2022/01/09 09:33:46;;;;;;;6.30;2.50;;;6.50;99.90;;;;;;4958970;29;20476;-87
2022/01/09 09:36:12;;;;;;;6.00;2.10;;;6.50;99.90;;;;;;4959054;29;20517;-87
2022/01/09 09:38:41;;;;;;;7.20;1.73;;;6.50;99.90;;;;;;4959051;29;20426;-87
2022/01/09 09:41:07;;;;;;;4.40;1.73;;;6.40;99.90;;;;;;4960604;29;20469;-86
2022/01/09 09:43:34;;;;;;;5.77;1.57;;;6.30;99.90;;;;;;4962499;29;20444;-87
2022/01/09 09:46:03;;;;;;;4.70;1.73;;;6.10;99.90;;;;;;4962387;29;20463;-88
2022/01/09 09:48:30;;;;;;;6.40;2.47;;;6.10;99.90;;;;;;4962120;29;20441;-87
2022/01/09 09:50:57;;;;;;;3.87;1.40;;;6.10;99.90;;;;;;4960331;29;20452;-88
2022/01/09 09:53:24;;;;;;;3.27;1.73;;;6.20;99.90;;;;;;4956625;29;20449;-89
2022/01/09 09:55:53;;;;;;;5.60;2.30;;;6.00;99.90;;;;;;4963090;29;20481;-91
2022/01/09 09:58:22;;;;;;;2.40;1.43;;;6.10;99.90;;;;;;4959766;29;20473;-89
2022/01/09 10:00:53;;;;;;;7.33;1.90;;;6.30;99.90;;;;;;4959812;29;20512;-88
2022/01/09 10:03:27;;;;;;;5.93;2.07;;;6.50;99.90;;;;;;4947993;29;20481;-88
2022/01/09 10:06:02;;;;;;;4.23;2.00;;;7.00;99.90;;;;;;4954079;29;20460;-89
2022/01/09 10:08:36;;;;;;;7.13;2.30;;;7.30;99.90;;;;;;4949800;29;20449;-86
2022/01/09 10:11:15;;;;;;;4.93;1.83;;;7.60;99.90;;;;;;4945143;29;20844;-89
2022/01/09 10:13:41;;;;;;;5.60;1.80;;;7.60;99.90;;;;;;4945143;29;20455;-90
2022/01/09 10:16:10;;;;;;;4.60;2.40;;;7.60;99.90;;;;;;4944901;29;20978;-88
2022/01/09 10:18:43;;;;;;;9.00;2.00;;;7.60;99.90;;;;;;4942963;29;20461;-88
2022/01/09 10:21:11;;;;;;;5.17;1.70;;;7.40;99.90;;;;;;4942707;29;20465;-89
2022/01/09 10:23:57;;;;;;;7.63;2.60;;;7.10;99.90;;;;;;4943069;29;20528;-88
2022/01/09 10:26:25;;;;;;;4.83;1.90;;;6.50;99.90;;;;;;4942534;29;20465;-88
2022/01/09 10:28:52;;;;;;;4.80;1.60;;;6.20;99.90;;;;;;4941508;29;20449;-88
2022/01/09 10:31:20;;;;;;;4.30;1.80;;;6.10;99.90;;;;;;4941329;29;20445;-89
2022/01/09 10:34:06;;;;;;;4.37;1.43;;;6.20;99.90;;;;;;4942369;29;20457;-88
2022/01/09 10:36:44;;;;;;;7.53;2.23;;;6.20;99.90;;;;;;4943502;29;20478;-88
2022/01/09 10:39:14;;;;;;;3.67;1.20;;;6.40;99.90;;;;;;4948080;29;20430;-89
2022/01/09 10:41:51;;;;;;;4.90;1.70;;;6.80;99.90;;;;;;4941579;29;20486;-89
2022/01/09 10:44:20;;;;;;;5.83;2.27;;;7.90;99.90;;;;;;4940250;29;20458;-89
2022/01/09 10:46:55;;;;;;;4.80;1.60;;;8.70;99.90;;;;;;4959858;29;20818;-86
2022/01/09 10:49:21;;;;;;;5.90;1.80;;;8.60;99.90;;;;;;4950731;29;20979;-87
2022/01/09 10:51:49;;;;;;;3.73;1.47;;;8.20;99.90;;;;;;4942365;29;20441;-87
2022/01/09 10:54:28;;;;;;;4.67;1.87;;;8.00;99.90;;;;;;4940226;29;20550;-86
2022/01/09 10:57:13;;;;;;;7.50;2.67;;;7.80;99.90;;;;;;4943769;29;20454;-87
2022/01/09 10:59:40;;;;;;;8.83;2.40;;;7.60;99.90;;;;;;4957712;29;20426;-86
2022/01/09 11:02:07;;;;;;;4.53;2.30;;;7.40;99.90;;;;;;4950703;29;20568;-86
2022/01/09 11:04:34;;;;;;;8.37;3.40;;;7.40;99.90;;;;;;4957784;29;20426;-86
2022/01/09 11:07:01;;;;;;;6.17;1.83;;;7.50;99.90;;;;;;4948866;29;20468;-86
2022/01/09 11:09:29;;;;;;;6.90;2.27;;;7.60;99.90;;;;;;4941839;29;20450;-87
2022/01/09 11:11:57;;;;;;;7.70;3.03;;;7.70;99.90;;;;;;4946440;29;20450;-87
2022/01/09 11:14:27;;;;;;;11.70;5.63;;;8.60;99.90;;;;;;4950400;29;20422;-86
2022/01/09 11:16:55;;;;;;;10.50;5.77;;;9.70;99.90;;;;;;4946594;29;20450;-87
2022/01/09 11:19:23;;;;;;;13.33;6.40;;;10.70;99.90;;;;;;4943866;29;20434;-86
2022/01/09 11:21:52;;;;;;;8.57;3.40;;;12.00;99.80;;;;;;4941998;29;20493;-86
2022/01/09 11:24:39;;;;;;;7.93;2.20;;;11.70;96.50;;;;;;4941249;29;20449;-87
2022/01/09 11:27:22;;;;;;;7.73;2.13;;;11.00;97.20;;;;;;4939997;29;20470;-86
2022/01/09 11:30:03;;;;;;;3.67;2.40;;;10.00;97.50;;;;;;4941171;29;20504;-87
2022/01/09 11:32:43;;;;;;;6.10;3.03;;;9.40;99.50;;;;;;4949098;29;20506;-87
2022/01/09 11:35:17;;;;;;;4.67;2.20;;;9.20;99.90;;;;;;4956150;29;20457;-86
2022/01/09 11:38:01;;;;;;;6.87;2.40;;;8.70;99.90;;;;;;4952719;29;20448;-86
2022/01/09 11:40:30;;;;;;;7.93;2.27;;;8.40;99.90;;;;;;4948408;29;20497;-87
2022/01/09 11:43:06;;;;;;;6.87;3.10;;;8.40;99.90;;;;;;4940423;29;20438;-87
2022/01/09 11:45:51;;;;;;;3.27;1.47;;;8.60;99.90;;;;;;4945426;29;20465;-87
2022/01/09 11:48:20;;;;;;;4.00;2.90;;;9.00;99.90;;;;;;4951046;29;20785;-87
2022/01/09 11:51:14;;;;;;;3.70;2.60;;;9.10;99.90;;;;;;4941469;29;20465;-87
2022/01/09 11:54:10;;;;;;;4.47;2.13;;;9.30;99.70;;;;;;4941159;29;20458;-87
2022/01/09 11:56:55;;;;;;;7.20;2.97;;;9.50;99.80;;;;;;4940429;29;20477;-86
2022/01/09 11:59:27;;;;;;;7.07;3.27;;;10.30;99.50;;;;;;4948560;29;20438;-86
2022/01/09 12:01:59;;;;;;;6.57;1.60;;;11.20;98.10;;;;;;4940844;29;20438;-85
2022/01/09 12:04:55;;;;;;;4.40;1.27;;;13.20;94.80;;;;;;4937047;29;20448;-85
2022/01/09 12:08:03;;;;;;;6.00;2.13;;;12.90;91.90;;;;;;4938505;29;20817;-86
2022/01/09 12:10:32;;;;;;;3.00;1.27;;;12.00;93.30;;;;;;4937768;29;20501;-85
2022/01/09 12:13:00;;;;;;;5.13;1.40;;;10.80;93.50;;;;;;4938517;29;20477;-86
2022/01/09 12:15:35;;;;;;;10.00;1.40;;;10.00;95.10;;;;;;4938420;29;20835;-85
2022/01/09 12:18:04;;;;;;;5.23;2.83;;;9.60;97.30;;;;;;4939164;29;20441;-86
2022/01/09 12:20:37;;;;;;;4.17;2.50;;;9.50;98.40;;;;;;4944336;29;20460;-86
2022/01/09 12:23:05;;;;;;;6.37;3.17;;;9.60;98.80;;;;;;4943944;29;20450;-85
2022/01/09 12:25:50;;;;;;;5.80;3.37;;;9.80;98.40;;;;;;4941059;29;20485;-86
2022/01/09 12:28:19;;;;;;;9.70;2.80;;;10.20;96.80;;;;;;4937617;29;20446;-86
2022/01/09 12:30:49;;;;;;;4.60;2.63;;;11.00;97.00;;;;;;4944309;29;20825;-85
2022/01/09 12:33:49;;;;;;;2.73;1.60;;;12.00;94.80;;;;;;4941835;29;21028;-86
2022/01/09 12:36:23;;;;;;;6.33;1.93;;;11.60;93.50;;;;;;4942956;29;20504;-87
2022/01/09 12:38:55;;;;;;;4.73;2.87;;;11.10;94.10;;;;;;4939202;29;20469;-87
2022/01/09 12:41:24;;;;;;;10.73;3.23;;;10.40;94.20;;;;;;4938778;29;20521;-86
2022/01/09 12:43:58;;;;;;;17.20;6.80;;;10.10;96.10;;;;;;4941106;29;20445;-86
2022/01/09 12:46:25;;;;;;;4.50;2.60;;;9.90;96.60;;;;;;4940217;29;20465;-85
2022/01/09 12:48:54;;;;;;;10.43;4.57;;;9.70;97.00;;;;;;4938823;29;20438;-88
2022/01/09 12:51:22;;;;;;;6.87;2.60;;;9.80;97.10;;;;;;4937877;29;20467;-86
2022/01/09 12:53:50;;;;;;;3.73;2.00;;;10.00;96.20;;;;;;4938294;29;20461;-86
2022/01/09 12:56:18;;;;;;;3.83;1.33;;;9.80;96.60;;;;;;4940781;29;20501;-86
2022/01/09 12:58:47;;;;;;;7.87;2.17;;;9.60;96.70;;;;;;4938065;29;20441;-85
2022/01/09 13:01:19;;;;;;;7.27;2.00;;;10.60;96.10;;;;;;4937646;29;20800;-86
2022/01/09 13:03:47;;;;;;;5.53;2.13;;;11.50;94.50;;;;;;4934815;29;20450;-86
2022/01/09 13:06:17;;;;;;;3.40;2.23;;;11.40;93.20;;;;;;4944110;29;20472;-86
2022/01/09 13:08:46;;;;;;;5.63;2.10;;;11.00;93.40;;;;;;4956637;29;20515;-86
2022/01/09 13:11:15;;;;;;;6.93;2.30;;;10.40;94.30;;;;;;4953069;29;20434;-86
2022/01/09 13:13:44;;;;;;;8.73;2.90;;;10.20;95.10;;;;;;4949982;29;20444;-86
2022/01/09 13:16:12;;;;;;;6.30;2.63;;;10.00;95.20;;;;;;4951918;29;20468;-86